Aviation Digital Data Service (ADDS)

Output produced by METARs form (1808 UTC 21 September 2019)
found at http://aviationweather.gov/metar/data/
 
KIAH 211753Z 13014KT 10SM SCT035 32/22 A3007 RMK AO2 SLP182 T03170217 10317 20239 58005 $
KIAH 211720Z 2118/2224 14014KT P6SM SCT035 
     FM220100 14010KT P6SM SCT025 
     FM221500 13008KT P6SM BKN025 
     FM221800 14010KT P6SM BKN035